createdAt,value
2022-08-03T00:01:47.628Z,18.96
2022-08-03T00:04:15.941Z,18.87
2022-08-03T00:06:45.514Z,18.87
2022-08-03T00:09:13.518Z,18.85
2022-08-03T00:11:41.783Z,18.83
2022-08-03T00:14:10.025Z,18.82
2022-08-03T00:16:39.972Z,18.80
2022-08-03T00:19:08.235Z,18.82
2022-08-03T00:21:36.623Z,18.87
2022-08-03T00:24:05.230Z,18.90
2022-08-03T00:26:33.818Z,18.89
2022-08-03T00:29:02.650Z,18.95
2022-08-03T00:31:39.861Z,18.95
2022-08-03T00:34:30.954Z,18.97
2022-08-03T00:37:04.922Z,19.00
2022-08-03T00:39:34.503Z,19.02
2022-08-03T00:42:03.951Z,19.04
2022-08-03T00:44:32.562Z,19.08
2022-08-03T00:47:00.861Z,19.11
2022-08-03T00:49:31.032Z,19.08
2022-08-03T00:51:59.453Z,19.07
2022-08-03T00:54:27.927Z,19.11
2022-08-03T00:57:00.112Z,19.07
2022-08-03T00:59:28.774Z,19.08
2022-08-03T01:01:57.405Z,19.07
2022-08-03T01:04:25.533Z,19.04
2022-08-03T01:07:03.333Z,19.04
2022-08-03T01:09:37.395Z,19.03
2022-08-03T01:12:10.105Z,19.03
2022-08-03T01:14:41.197Z,19.04
2022-08-03T01:17:14.269Z,19.06
2022-08-03T01:19:49.680Z,19.04
2022-08-03T01:22:57.517Z,19.10
2022-08-03T01:25:54.534Z,19.14
2022-08-03T01:28:37.090Z,19.18
2022-08-03T01:31:09.353Z,19.24
2022-08-03T01:33:38.943Z,19.21
2022-08-03T01:36:14.993Z,19.24
2022-08-03T01:38:44.904Z,19.23
2022-08-03T01:41:18.877Z,19.23
2022-08-03T01:44:26.515Z,19.26
2022-08-03T01:46:40.491Z,19.23
2022-08-03T01:49:16.245Z,19.27
2022-08-03T01:51:58.580Z,19.26
2022-08-03T01:54:34.574Z,19.26
2022-08-03T01:57:04.470Z,19.21
2022-08-03T01:59:35.037Z,19.16
2022-08-03T02:02:31.813Z,19.14
2022-08-03T02:04:55.481Z,19.08
2022-08-03T02:07:25.928Z,19.06
2022-08-03T02:09:55.513Z,19.04
2022-08-03T02:12:25.334Z,18.99
2022-08-03T02:14:53.864Z,18.99
2022-08-03T02:17:39.000Z,18.96
2022-08-03T02:20:10.504Z,18.96
2022-08-03T02:22:41.317Z,19.03
2022-08-03T02:25:11.105Z,19.17
2022-08-03T02:27:43.665Z,19.26
2022-08-03T02:30:13.667Z,19.28
2022-08-03T02:32:45.589Z,19.33
2022-08-03T02:35:17.184Z,19.33
2022-08-03T02:37:50.464Z,19.30
2022-08-03T02:40:19.449Z,19.30
2022-08-03T02:42:48.780Z,19.28
2022-08-03T02:45:18.402Z,19.27
2022-08-03T02:47:54.360Z,19.26
2022-08-03T02:50:24.123Z,19.31
2022-08-03T02:52:53.361Z,19.37
2022-08-03T02:55:23.241Z,19.40
2022-08-03T02:57:51.444Z,19.47
2022-08-03T03:00:27.449Z,19.51
2022-08-03T03:02:59.592Z,19.58
2022-08-03T03:05:55.278Z,19.69
2022-08-03T03:08:25.913Z,19.81
2022-08-03T03:10:56.060Z,19.89
2022-08-03T03:13:24.301Z,19.90
2022-08-03T03:15:53.709Z,19.95
2022-08-03T03:18:24.093Z,19.93
2022-08-03T03:20:53.239Z,19.98
2022-08-03T03:23:22.644Z,20.01
2022-08-03T03:25:51.951Z,19.96
2022-08-03T03:28:20.881Z,19.98
2022-08-03T03:30:52.733Z,19.98
2022-08-03T03:33:22.971Z,19.95
2022-08-03T03:35:52.887Z,19.92
2022-08-03T03:38:21.895Z,19.89
2022-08-03T03:40:50.428Z,19.87
2022-08-03T03:43:19.488Z,19.87
2022-08-03T03:45:49.124Z,19.89
2022-08-03T03:48:17.589Z,19.89
2022-08-03T03:50:47.373Z,19.89
2022-08-03T03:53:15.963Z,19.89
2022-08-03T03:55:57.729Z,19.90
2022-08-03T03:58:31.526Z,19.89
2022-08-03T04:01:00.275Z,19.99
2022-08-03T04:03:28.479Z,20.16
2022-08-03T04:06:15.464Z,20.41
2022-08-03T04:09:01.239Z,20.73
2022-08-03T04:11:33.269Z,21.05
2022-08-03T04:14:04.460Z,21.36
2022-08-03T04:16:37.998Z,21.73
2022-08-03T04:19:11.219Z,22.13
2022-08-03T04:21:42.862Z,22.51
2022-08-03T04:24:11.907Z,22.69
2022-08-03T04:26:41.928Z,22.80
2022-08-03T04:29:11.782Z,23.14
2022-08-03T04:31:41.413Z,23.57
2022-08-03T04:34:09.762Z,24.03
2022-08-03T04:36:46.218Z,24.61
2022-08-03T04:39:15.875Z,25.12
2022-08-03T04:42:07.783Z,25.46
2022-08-03T04:44:37.578Z,25.58
2022-08-03T04:47:06.254Z,25.66
2022-08-03T04:49:34.904Z,25.84
2022-08-03T04:52:04.884Z,26.01
2022-08-03T04:54:40.674Z,26.35
2022-08-03T04:57:09.061Z,26.75
2022-08-03T04:59:39.166Z,27.03
2022-08-03T05:02:09.610Z,27.39
2022-08-03T05:04:41.076Z,27.64
2022-08-03T05:07:11.683Z,27.99
2022-08-03T05:09:49.954Z,28.18
2022-08-03T05:12:28.376Z,28.28
2022-08-03T05:15:00.281Z,28.57
2022-08-03T05:17:28.611Z,28.87
2022-08-03T05:19:57.178Z,29.20
2022-08-03T05:22:26.798Z,29.30
2022-08-03T05:24:55.142Z,29.46
2022-08-03T05:27:23.327Z,29.46
2022-08-03T05:29:51.983Z,29.59
2022-08-03T05:32:20.174Z,29.72
2022-08-03T05:34:48.571Z,30.00
2022-08-03T05:37:16.840Z,30.17
2022-08-03T05:39:46.353Z,30.47
2022-08-03T05:42:20.224Z,30.57
2022-08-03T05:44:48.268Z,30.71
2022-08-03T05:47:16.401Z,31.06
2022-08-03T05:49:45.389Z,31.26
2022-08-03T05:52:16.707Z,31.63
2022-08-03T05:54:56.269Z,32.05
2022-08-03T05:57:25.844Z,32.38
2022-08-03T05:59:58.058Z,32.42
2022-08-03T06:02:27.418Z,32.21
2022-08-03T06:04:56.766Z,32.37
2022-08-03T06:07:26.666Z,32.18
2022-08-03T06:10:34.240Z,32.25
2022-08-03T06:12:47.910Z,32.31
2022-08-03T06:15:16.281Z,32.27
2022-08-03T06:17:48.666Z,32.29
2022-08-03T06:20:18.116Z,32.12
2022-08-03T06:22:51.330Z,32.20
2022-08-03T06:25:31.089Z,32.14
2022-08-03T06:28:01.813Z,31.93
2022-08-03T06:30:30.196Z,32.02
2022-08-03T06:32:58.210Z,32.20
2022-08-03T06:35:27.889Z,32.41
2022-08-03T06:37:57.387Z,32.62
2022-08-03T06:40:31.332Z,32.58
2022-08-03T06:43:03.997Z,32.59
2022-08-03T06:45:34.225Z,32.69
2022-08-03T06:48:03.140Z,32.93
2022-08-03T06:50:32.710Z,32.76
2022-08-03T06:53:01.505Z,32.89
2022-08-03T06:55:29.602Z,32.87
2022-08-03T06:57:59.816Z,32.76
2022-08-03T07:00:33.302Z,32.92
2022-08-03T07:03:01.400Z,33.15
2022-08-03T07:05:30.755Z,33.58
2022-08-03T07:07:59.264Z,33.78
2022-08-03T07:10:28.379Z,33.88
2022-08-03T07:12:58.981Z,34.17
2022-08-03T07:15:53.684Z,34.39
2022-08-03T07:18:17.277Z,34.58
2022-08-03T07:20:53.687Z,34.85
2022-08-03T07:23:21.977Z,35.17
2022-08-03T07:25:51.862Z,35.26
2022-08-03T07:28:21.287Z,35.22
2022-08-03T07:30:50.568Z,35.29
2022-08-03T07:33:22.077Z,35.35
2022-08-03T07:35:50.925Z,35.27
2022-08-03T07:38:21.189Z,35.17
2022-08-03T07:40:50.138Z,34.99
2022-08-03T07:43:18.702Z,35.00
2022-08-03T07:45:47.112Z,35.06
2022-08-03T07:48:15.224Z,35.34
2022-08-03T07:50:45.287Z,35.31
2022-08-03T07:53:14.596Z,35.30
2022-08-03T07:55:43.418Z,35.30
2022-08-03T07:58:19.210Z,35.45
2022-08-03T08:00:51.098Z,35.26
2022-08-03T08:03:19.414Z,35.20
2022-08-03T08:05:49.101Z,35.54
2022-08-03T08:08:22.203Z,35.89
2022-08-03T08:10:57.767Z,35.74
2022-08-03T08:13:26.588Z,35.80
2022-08-03T08:15:54.707Z,36.22
2022-08-03T08:18:25.108Z,36.75
2022-08-03T08:20:56.245Z,36.76
2022-08-03T08:23:42.824Z,36.46
2022-08-03T08:26:16.872Z,36.36
2022-08-03T08:28:45.301Z,36.20
2022-08-03T08:31:15.707Z,36.18
2022-08-03T08:36:33.830Z,36.50
2022-08-03T08:39:02.440Z,36.86
2022-08-03T08:41:33.901Z,37.33
2022-08-03T08:44:02.192Z,37.68
2022-08-03T08:46:32.203Z,37.89
2022-08-03T08:49:05.045Z,37.28
2022-08-03T08:51:59.115Z,37.34
2022-08-03T08:54:28.975Z,37.34
2022-08-03T08:56:59.404Z,37.41
2022-08-03T08:59:48.955Z,37.74
2022-08-03T09:02:16.713Z,37.79
2022-08-03T09:04:45.744Z,37.84
2022-08-03T09:07:20.354Z,38.23
2022-08-03T09:10:04.628Z,38.68
2022-08-03T09:12:42.467Z,38.63
2022-08-03T09:15:22.424Z,38.66
2022-08-03T09:17:51.576Z,38.81
2022-08-03T09:20:22.898Z,38.70
2022-08-03T09:22:59.260Z,38.91
2022-08-03T09:25:32.357Z,39.11
2022-08-03T09:28:10.418Z,39.18
2022-08-03T09:30:40.688Z,38.81
2022-08-03T09:33:10.630Z,38.15
2022-08-03T09:35:58.036Z,37.74
2022-08-03T09:38:32.138Z,37.96
2022-08-03T09:41:01.070Z,37.95
2022-08-03T09:43:29.447Z,38.32
2022-08-03T09:46:07.796Z,38.86
2022-08-03T09:48:37.513Z,38.97
2022-08-03T09:51:13.453Z,38.78
2022-08-03T09:54:01.873Z,39.01
2022-08-03T09:56:41.412Z,38.91
2022-08-03T09:59:10.044Z,38.74
2022-08-03T10:01:42.621Z,38.32
2022-08-03T10:04:15.569Z,38.53
2022-08-03T10:06:45.775Z,38.95
2022-08-03T10:09:17.366Z,38.91
2022-08-03T10:11:47.837Z,38.57
2022-08-03T10:14:19.931Z,38.16
2022-08-03T10:16:49.451Z,37.81
2022-08-03T10:19:19.644Z,37.54
2022-08-03T10:21:50.831Z,37.20
2022-08-03T10:24:26.331Z,37.13
2022-08-03T10:26:59.384Z,37.27
2022-08-03T10:29:30.303Z,37.33
2022-08-03T10:32:01.134Z,37.50
2022-08-03T10:34:35.733Z,37.40
2022-08-03T10:37:11.353Z,37.60
2022-08-03T10:39:53.477Z,37.64
2022-08-03T10:42:34.882Z,37.60
2022-08-03T10:45:06.928Z,37.50
2022-08-03T10:47:36.773Z,37.33
2022-08-03T10:50:08.650Z,37.23
2022-08-03T10:52:40.994Z,37.14
2022-08-03T10:55:50.870Z,37.58
2022-08-03T10:58:57.534Z,37.48
2022-08-03T11:01:59.964Z,37.30
2022-08-03T11:04:30.461Z,37.13
2022-08-03T11:07:23.842Z,36.79
2022-08-03T11:09:53.805Z,36.84
2022-08-03T11:12:31.234Z,36.84
2022-08-03T11:15:02.916Z,36.98
2022-08-03T11:17:31.722Z,37.03
2022-08-03T11:20:00.145Z,36.93
2022-08-03T11:22:49.108Z,37.06
2022-08-03T11:25:54.098Z,37.08
2022-08-03T11:28:26.302Z,36.63
2022-08-03T11:30:55.157Z,36.75
2022-08-03T11:33:32.746Z,36.69
2022-08-03T11:36:03.123Z,36.66
2022-08-03T11:38:31.534Z,36.57
2022-08-03T11:41:02.893Z,36.70
2022-08-03T11:43:46.786Z,36.91
2022-08-03T11:46:28.562Z,36.90
2022-08-03T11:49:10.451Z,36.91
2022-08-03T11:51:40.440Z,36.83
2022-08-03T11:54:08.963Z,36.42
2022-08-03T11:56:49.027Z,36.08
2022-08-03T11:59:21.711Z,36.12
2022-08-03T12:01:51.108Z,36.20
2022-08-03T12:04:20.643Z,36.28
2022-08-03T12:07:02.319Z,36.08
2022-08-03T12:09:34.571Z,35.75
2022-08-03T12:12:04.294Z,35.35
2022-08-03T12:14:49.730Z,35.19
2022-08-03T12:17:20.578Z,35.00
2022-08-03T12:19:49.286Z,34.72
2022-08-03T12:22:20.490Z,34.45
2022-08-03T12:24:48.989Z,34.24
2022-08-03T12:27:29.742Z,34.15
2022-08-03T12:29:59.397Z,34.14
2022-08-03T12:32:28.669Z,34.04
2022-08-03T12:35:01.238Z,33.90
2022-08-03T12:37:30.880Z,33.84
2022-08-03T12:40:09.505Z,33.82
2022-08-03T12:42:40.832Z,33.81
2022-08-03T12:45:22.906Z,33.70
2022-08-03T12:47:52.666Z,33.63
2022-08-03T12:50:29.143Z,33.74
2022-08-03T12:52:57.887Z,33.80
2022-08-03T12:55:57.922Z,33.81
2022-08-03T12:58:35.945Z,33.73
2022-08-03T13:01:09.112Z,33.67
2022-08-03T13:03:45.655Z,33.53
2022-08-03T13:06:15.306Z,33.39
2022-08-03T13:08:44.204Z,33.36
2022-08-03T13:11:29.522Z,33.24
2022-08-03T13:14:16.644Z,33.15
2022-08-03T13:16:50.537Z,33.15
2022-08-03T13:19:18.821Z,33.15
2022-08-03T13:22:03.395Z,33.13
2022-08-03T13:24:33.820Z,33.09
2022-08-03T13:27:22.555Z,33.02
2022-08-03T13:29:53.150Z,32.95
2022-08-03T13:32:23.470Z,32.96
2022-08-03T13:34:51.600Z,32.99
2022-08-03T13:37:30.068Z,32.98
2022-08-03T13:40:02.548Z,33.06
2022-08-03T13:42:34.184Z,33.13
2022-08-03T13:45:04.705Z,33.16
2022-08-03T13:47:33.410Z,33.19
2022-08-03T13:50:03.016Z,33.15
2022-08-03T13:52:33.126Z,33.02
2022-08-03T13:55:01.484Z,32.87
2022-08-03T13:58:03.025Z,32.78
2022-08-03T14:00:27.680Z,32.72
2022-08-03T14:03:14.889Z,32.69
2022-08-03T14:05:44.223Z,32.66
2022-08-03T14:08:13.313Z,32.69
2022-08-03T14:10:43.751Z,32.66
2022-08-03T14:13:14.432Z,32.59
2022-08-03T14:15:51.259Z,32.59
2022-08-03T14:18:28.983Z,32.58
2022-08-03T14:21:07.376Z,32.64
2022-08-03T14:23:37.584Z,32.75
2022-08-03T14:26:06.406Z,32.90
2022-08-03T14:28:34.517Z,33.02
2022-08-03T14:31:04.201Z,33.10
2022-08-03T14:33:36.756Z,33.17
2022-08-03T14:36:05.691Z,33.22
2022-08-03T14:38:34.972Z,33.27
2022-08-03T14:41:05.393Z,33.29
2022-08-03T14:43:34.399Z,33.26
2022-08-03T14:46:03.983Z,33.24
2022-08-03T14:50:33.284Z,33.24
2022-08-03T14:51:21.585Z,33.31
2022-08-03T14:53:49.821Z,33.42
2022-08-03T14:56:17.975Z,33.40
2022-08-03T14:58:46.009Z,33.33
2022-08-03T15:02:02.856Z,33.31
2022-08-03T15:04:04.909Z,33.33
2022-08-03T15:06:33.057Z,33.34
2022-08-03T15:09:21.219Z,33.36
2022-08-03T15:11:49.537Z,33.36
2022-08-03T15:14:19.546Z,33.33
2022-08-03T15:16:57.737Z,33.31
2022-08-03T15:20:01.997Z,33.30
2022-08-03T15:22:20.421Z,33.24
2022-08-03T15:24:49.315Z,33.19
2022-08-03T15:27:17.844Z,33.17
2022-08-03T15:30:09.433Z,33.02
2022-08-03T15:32:35.831Z,32.92
2022-08-03T15:35:04.157Z,32.85
2022-08-03T15:37:32.376Z,32.83
2022-08-03T15:40:01.189Z,32.78
2022-08-03T15:42:30.596Z,32.79
2022-08-03T15:44:59.087Z,32.80
2022-08-03T15:47:28.785Z,32.79
2022-08-03T15:49:58.237Z,32.78
2022-08-03T15:52:26.531Z,32.72
2022-08-03T15:54:54.844Z,32.69
2022-08-03T15:57:23.299Z,32.62
2022-08-03T15:59:52.077Z,32.61
2022-08-03T16:02:21.455Z,32.61
2022-08-03T16:04:50.115Z,32.58
2022-08-03T16:07:40.518Z,32.55
2022-08-03T16:10:29.012Z,32.58
2022-08-03T16:12:58.747Z,32.55
2022-08-03T16:15:28.363Z,32.55
2022-08-03T16:17:57.363Z,32.55
2022-08-03T16:20:31.668Z,32.53
2022-08-03T16:23:11.390Z,32.51
2022-08-03T16:25:41.467Z,32.53
2022-08-03T16:28:14.645Z,32.56
2022-08-03T16:30:44.527Z,32.53
2022-08-03T16:33:16.676Z,32.56
2022-08-03T16:35:46.059Z,32.55
2022-08-03T16:38:19.191Z,32.55
2022-08-03T16:40:51.632Z,32.51
2022-08-03T16:43:21.134Z,32.51
2022-08-03T16:45:49.605Z,32.45
2022-08-03T16:48:18.826Z,32.44
2022-08-03T16:50:47.405Z,32.38
2022-08-03T16:53:32.997Z,32.31
2022-08-03T16:56:09.481Z,32.27
2022-08-03T16:58:42.220Z,32.27
2022-08-03T17:01:21.705Z,32.31
2022-08-03T17:04:01.918Z,32.29
2022-08-03T17:06:34.499Z,32.24
2022-08-03T17:09:08.322Z,32.21
2022-08-03T17:11:46.505Z,32.17
2022-08-03T17:14:16.789Z,32.12
2022-08-03T17:16:52.549Z,32.04
2022-08-03T17:19:24.611Z,31.93
2022-08-03T17:21:59.028Z,31.84
2022-08-03T17:24:33.064Z,31.76
2022-08-03T17:27:03.341Z,31.67
2022-08-03T17:29:33.605Z,31.57
2022-08-03T17:32:09.285Z,31.47
2022-08-03T17:34:41.662Z,31.39
2022-08-03T17:37:27.110Z,31.30
2022-08-03T17:40:03.000Z,31.23
2022-08-03T17:42:32.994Z,31.14
2022-08-03T17:45:06.759Z,31.05
2022-08-03T17:47:41.972Z,30.96
2022-08-03T17:50:24.410Z,30.94
2022-08-03T17:53:06.831Z,30.88
2022-08-03T17:55:58.420Z,30.81
2022-08-03T17:58:46.337Z,30.74
2022-08-03T18:02:00.753Z,30.67
2022-08-03T18:04:35.411Z,30.58
2022-08-03T18:07:11.565Z,30.51
2022-08-03T18:10:11.003Z,30.40
2022-08-03T18:12:58.484Z,30.30
2022-08-03T18:15:35.916Z,30.19
2022-08-03T18:18:11.020Z,30.19
2022-08-03T18:20:45.764Z,30.19
2022-08-03T18:23:36.874Z,30.12
2022-08-03T18:26:11.917Z,30.01
2022-08-03T18:28:41.731Z,29.92
2022-08-03T18:31:11.900Z,29.80
2022-08-03T18:34:19.211Z,29.73
2022-08-03T18:36:31.109Z,29.59
2022-08-03T18:39:02.699Z,29.48
2022-08-03T18:41:32.364Z,29.42
2022-08-03T18:44:07.606Z,29.34
2022-08-03T18:46:49.028Z,29.25
2022-08-03T18:49:25.742Z,29.15
2022-08-03T18:52:04.555Z,29.01
2022-08-03T18:54:45.526Z,28.87
2022-08-03T18:57:30.242Z,28.77
2022-08-03T19:00:12.199Z,28.74
2022-08-03T19:02:49.002Z,28.72
2022-08-03T19:05:20.443Z,28.66
2022-08-03T19:08:00.105Z,28.63
2022-08-03T19:10:32.244Z,28.55
2022-08-03T19:13:04.903Z,28.42
2022-08-03T19:15:51.387Z,28.32
2022-08-03T19:18:21.609Z,28.19
2022-08-03T19:20:53.188Z,28.01
2022-08-03T19:23:25.944Z,27.88
2022-08-03T19:25:59.817Z,27.74
2022-08-03T19:28:29.726Z,27.63
2022-08-03T19:31:02.724Z,27.51
2022-08-03T19:33:56.123Z,27.41
2022-08-03T19:36:26.557Z,27.31
2022-08-03T19:38:56.687Z,27.26
2022-08-03T19:41:25.657Z,27.15
2022-08-03T19:44:00.908Z,27.04
2022-08-03T19:46:37.865Z,26.96
2022-08-03T19:49:15.469Z,26.85
2022-08-03T19:52:01.863Z,26.71
2022-08-03T19:54:39.652Z,26.58
2022-08-03T19:57:25.302Z,26.54
2022-08-03T19:59:54.570Z,26.45
2022-08-03T20:02:26.615Z,26.45
2022-08-03T20:04:57.370Z,26.38
2022-08-03T20:07:25.829Z,26.31
2022-08-03T20:09:56.522Z,26.24
2022-08-03T20:12:26.629Z,26.12
2022-08-03T20:14:57.394Z,26.01
2022-08-03T20:17:56.923Z,25.90
2022-08-03T20:20:19.758Z,25.79
2022-08-03T20:22:54.179Z,25.67
2022-08-03T20:25:38.934Z,25.53
2022-08-03T20:28:13.881Z,25.42
2022-08-03T20:30:44.428Z,25.29
2022-08-03T20:33:18.335Z,25.18
2022-08-03T20:35:48.999Z,25.15
2022-08-03T20:38:18.665Z,25.12
2022-08-03T20:40:48.044Z,25.08
2022-08-03T20:43:16.136Z,24.98
2022-08-03T20:45:59.125Z,24.88
2022-08-03T20:48:35.928Z,24.80
2022-08-03T20:51:05.579Z,24.73
2022-08-03T20:53:59.467Z,24.68
2022-08-03T20:56:33.740Z,24.59
2022-08-03T20:59:04.004Z,24.50
2022-08-03T21:01:36.233Z,24.47
2022-08-03T21:04:07.180Z,24.43
2022-08-03T21:06:41.394Z,24.41
2022-08-03T21:09:19.085Z,24.36
2022-08-03T21:11:50.408Z,24.33
2022-08-03T21:14:23.725Z,24.30
2022-08-03T21:16:52.841Z,24.25
2022-08-03T21:19:23.349Z,24.19
2022-08-03T21:21:51.615Z,24.09
2022-08-03T21:24:22.758Z,24.05
2022-08-03T21:26:51.830Z,23.99
2022-08-03T21:29:20.022Z,23.92
2022-08-03T21:31:48.822Z,23.91
2022-08-03T21:34:17.093Z,23.89
2022-08-03T21:36:46.567Z,23.86
2022-08-03T21:39:14.637Z,23.88
2022-08-03T21:41:42.827Z,23.86
2022-08-03T21:44:11.083Z,23.86
2022-08-03T21:46:40.938Z,23.82
2022-08-03T21:50:07.971Z,23.84
2022-08-03T21:52:04.887Z,23.77
2022-08-03T21:54:36.143Z,23.75
2022-08-03T21:57:06.529Z,23.70
2022-08-03T21:59:37.917Z,23.64
2022-08-03T22:02:22.563Z,23.60
2022-08-03T22:04:55.722Z,23.58
2022-08-03T22:07:28.232Z,23.57
2022-08-03T22:09:56.751Z,23.53
2022-08-03T22:12:26.618Z,23.48
2022-08-03T22:15:01.064Z,23.45
2022-08-03T22:17:54.771Z,23.43
2022-08-03T22:20:20.209Z,23.37
2022-08-03T22:22:55.109Z,23.34
2022-08-03T22:25:28.687Z,23.26
2022-08-03T22:27:58.451Z,23.23
2022-08-03T22:30:26.607Z,23.16
2022-08-03T22:32:56.126Z,23.12
2022-08-03T22:35:25.902Z,23.09
2022-08-03T22:37:56.647Z,23.07
2022-08-03T22:40:25.482Z,23.09
2022-08-03T22:42:53.635Z,23.07
2022-08-03T22:46:07.817Z,23.13
2022-08-03T22:48:09.759Z,23.10
2022-08-03T22:50:38.329Z,23.07
2022-08-03T22:53:07.745Z,23.00
2022-08-03T22:55:35.797Z,23.03
2022-08-03T22:58:03.855Z,23.00
2022-08-03T23:00:31.869Z,22.97
2022-08-03T23:03:01.397Z,22.99
2022-08-03T23:06:02.189Z,22.97
2022-08-03T23:08:22.596Z,22.97
2022-08-03T23:10:51.595Z,22.93
2022-08-03T23:13:20.586Z,22.89
2022-08-03T23:16:00.922Z,22.86
2022-08-03T23:18:34.160Z,22.85
2022-08-03T23:21:11.163Z,22.82
2022-08-03T23:23:44.256Z,22.77
2022-08-03T23:26:13.352Z,22.69
2022-08-03T23:28:42.524Z,22.65
2022-08-03T23:31:10.881Z,22.59
2022-08-03T23:33:40.081Z,22.53
2022-08-03T23:36:29.554Z,22.51
2022-08-03T23:38:56.826Z,22.51
2022-08-03T23:41:24.876Z,22.44
2022-08-03T23:43:54.078Z,22.35
2022-08-03T23:46:22.967Z,22.29
2022-08-03T23:48:51.590Z,22.29
2022-08-03T23:51:30.589Z,22.28
2022-08-03T23:54:04.797Z,22.27
2022-08-03T23:56:38.545Z,22.25
2022-08-03T23:59:12.819Z,22.21
